Terminal Aerodrome Forecast
Issued by NWS Shreveport, LA

Home | Current Version | Previous Version | Text Only | Print | Product List | Glossary On
Versions: 1 2 3 4 5 6 7 8 9 10 11 12 13 14 15 16 17
000
FTUS44 KSHV 211100
TAFGGG
TAF
KGGG 211138Z 2112/2212 VRB04KT P6SM SKC
     FM211700 34005KT P6SM SCT045 SCT250
     FM220100 36003KT P6SM SCT070 SCT250
     FM220600 03005KT P6SM SCT050 SCT080 SCT250
     FM221000 04005KT P6SM SCT040 SCT080 SCT250=

USA.gov is the U.S. government's official web portal to all federal, state and local government web resources and services.